Time;durP1;ratioP1;P1;durP2;ratioP2;P2;SDS_P1;SDS_P2;PMS_P1;PMS_P2;Temp;Humidity;BMP_temperature;BMP_pressure;BME280_temperature;BME280_humidity;BME280_pressure;Samples;Min_cycle;Max_cycle;Signal;HPM_P1;HPM_P2
2024/01/16 00:00:58;;;;;;;4.47;2.20;;;;;;;-0.28;100.00;97520.97;5116415;28;20216;-75
2024/01/16 00:03:24;;;;;;;3.17;2.10;;;;;;;-0.29;100.00;97514.94;5115799;28;20203;-75
2024/01/16 00:05:51;;;;;;;2.73;2.20;;;;;;;-0.26;100.00;97517.19;5115410;28;20223;-75
2024/01/16 00:08:17;;;;;;;4.10;2.53;;;;;;;-0.31;100.00;97513.47;5115371;28;20741;-75
2024/01/16 00:10:43;;;;;;;2.40;2.20;;;;;;;-0.25;100.00;97513.63;5115535;28;20587;-75
2024/01/16 00:13:10;;;;;;;4.00;2.70;;;;;;;-0.31;100.00;97513.47;5115636;28;20199;-75
2024/01/16 00:15:36;;;;;;;5.83;2.90;;;;;;;-0.37;100.00;97507.09;5115776;28;20200;-75
2024/01/16 00:18:02;;;;;;;4.00;2.80;;;;;;;-0.35;100.00;97510.34;5115496;28;20206;-75
2024/01/16 00:20:29;;;;;;;4.43;2.83;;;;;;;-0.46;100.00;97508.09;5115386;28;20223;-75
2024/01/16 00:22:56;;;;;;;3.80;2.57;;;;;;;-0.39;100.00;97511.69;5115083;28;20213;-75
2024/01/16 00:25:22;;;;;;;4.40;2.93;;;;;;;-0.50;100.00;97512.00;5115419;28;20214;-75
2024/01/16 00:27:49;;;;;;;4.53;2.97;;;;;;;-0.45;100.00;97516.75;5115593;28;20246;-74
2024/01/16 00:30:15;;;;;;;3.83;2.40;;;;;;;-0.44;100.00;97523.59;5114932;28;20679;-74
2024/01/16 00:32:42;;;;;;;4.63;2.60;;;;;;;-0.49;100.00;97515.44;5115296;28;20605;-75
2024/01/16 00:35:08;;;;;;;4.47;3.27;;;;;;;-0.46;100.00;97517.69;5114958;28;20685;-75
2024/01/16 00:37:37;;;;;;;4.03;2.97;;;;;;;-0.51;100.00;97523.44;5115265;28;20211;-75
2024/01/16 00:40:05;;;;;;;4.00;2.67;;;;;;;-0.43;100.00;97513.00;5114997;28;20220;-75
2024/01/16 00:42:32;;;;;;;5.87;2.77;;;;;;;-0.50;100.00;97514.59;5114986;28;20195;-75
2024/01/16 00:44:59;;;;;;;4.93;2.90;;;;;;;-0.44;100.00;97513.94;5115046;28;20200;-74
2024/01/16 00:47:25;;;;;;;4.60;2.73;;;;;;;-0.47;100.00;97505.63;5114519;28;20670;-74
2024/01/16 00:49:52;;;;;;;5.17;3.03;;;;;;;-0.55;100.00;97509.06;5114743;28;20605;-74
2024/01/16 00:52:19;;;;;;;4.50;3.03;;;;;;;-0.54;100.00;97502.84;5114926;28;20293;-75
2024/01/16 00:54:45;;;;;;;4.87;3.13;;;;;;;-0.55;100.00;97509.06;5114537;28;20658;-75
2024/01/16 00:57:12;;;;;;;3.93;2.60;;;;;;;-0.45;100.00;97501.09;5114910;28;20206;-75
2024/01/16 00:59:38;;;;;;;4.93;2.97;;;;;;;-0.44;100.00;97503.50;5114769;28;20223;-75
2024/01/16 01:02:04;;;;;;;4.77;2.80;;;;;;;-0.41;100.00;97497.97;5114630;28;20574;-75
2024/01/16 01:04:33;;;;;;;4.57;2.90;;;;;;;-0.33;100.00;97500.56;5114407;28;20662;-75
2024/01/16 01:07:00;;;;;;;4.70;2.73;;;;;;;-0.36;100.00;97497.50;5114686;28;20207;-75
2024/01/16 01:09:26;;;;;;;5.20;2.83;;;;;;;-0.36;100.00;97500.91;5114936;28;20223;-75
2024/01/16 01:11:52;;;;;;;5.93;3.23;;;;;;;-0.36;100.00;97511.34;5114545;28;20219;-75
2024/01/16 01:14:19;;;;;;;5.10;2.70;;;;;;;-0.35;100.00;97509.56;5114550;28;20203;-74
2024/01/16 01:16:45;;;;;;;6.47;3.20;;;;;;;-0.28;100.00;97503.50;5114559;28;20310;-75
2024/01/16 01:19:12;;;;;;;4.20;2.67;;;;;;;-0.27;100.00;97512.97;5114448;28;20294;-75
2024/01/16 01:21:39;;;;;;;3.50;2.77;;;;;;;-0.30;100.00;97502.03;5114366;28;20224;-75
2024/01/16 01:24:05;;;;;;;5.90;2.90;;;;;;;-0.35;100.00;97507.75;5114469;28;20187;-75
2024/01/16 01:26:31;;;;;;;3.43;2.63;;;;;;;-0.42;100.00;97516.41;5114073;28;20687;-74
2024/01/16 01:28:58;;;;;;;5.87;2.60;;;;;;;-0.43;100.00;97515.59;5114283;28;20207;-75
2024/01/16 01:31:25;;;;;;;5.33;2.70;;;;;;;-0.43;100.00;97515.59;5114227;28;20231;-75
2024/01/16 01:33:51;;;;;;;5.37;2.83;;;;;;;-0.49;100.00;97526.69;5114042;28;20204;-75
2024/01/16 01:36:18;;;;;;;4.43;2.70;;;;;;;-0.54;100.00;97521.13;5115060;28;20207;-75
2024/01/16 01:38:44;;;;;;;5.77;3.07;;;;;;;-0.46;100.00;97528.16;5113975;28;20211;-74
2024/01/16 01:41:11;;;;;;;4.30;3.03;;;;;;;-0.42;100.00;97526.84;5114049;28;20223;-74
2024/01/16 01:43:38;;;;;;;4.93;3.00;;;;;;;-0.47;100.00;97531.75;5114251;28;20245;-75
2024/01/16 01:46:09;;;;;;;4.37;2.80;;;;;;;-0.49;100.00;97529.28;5115298;28;20214;-75
2024/01/16 01:48:38;;;;;;;4.57;3.00;;;;;;;-0.40;100.00;97532.75;5114401;28;20198;-74
2024/01/16 01:51:04;;;;;;;3.67;2.90;;;;;;;-0.49;100.00;97541.53;5114012;28;20229;-75
2024/01/16 01:53:32;;;;;;;3.93;2.60;;;;;;;-0.43;100.00;97544.31;5114027;28;20214;-75
2024/01/16 01:55:58;;;;;;;5.80;2.90;;;;;;;-0.44;100.00;97555.72;5114037;28;20207;-75
2024/01/16 01:58:25;;;;;;;4.67;2.90;;;;;;;-0.39;100.00;97550.03;5113713;28;20211;-75
2024/01/16 02:00:51;;;;;;;4.67;3.20;;;;;;;-0.43;100.00;97543.50;5113891;28;20227;-75
2024/01/16 02:03:18;;;;;;;7.03;3.00;;;;;;;-0.37;100.00;97551.50;5113716;28;20312;-75
2024/01/16 02:05:46;;;;;;;5.83;3.00;;;;;;;-0.31;100.00;97548.22;5112823;28;20431;-74
2024/01/16 02:08:12;;;;;;;3.97;3.17;;;;;;;-0.32;100.00;97546.59;5113467;28;20443;-74
2024/01/16 02:10:40;;;;;;;5.37;3.03;;;;;;;-0.37;100.00;97548.06;5113795;28;20458;-74
2024/01/16 02:13:07;;;;;;;3.23;2.57;;;;;;;-0.40;100.00;97543.97;5117589;28;20227;-74
2024/01/16 02:15:33;;;;;;;4.43;3.20;;;;;;;-0.46;100.00;97549.88;5117703;28;20674;-75
2024/01/16 02:17:59;;;;;;;4.33;2.60;;;;;;;-0.46;100.00;97556.88;5117946;28;20791;-75
2024/01/16 02:20:26;;;;;;;4.00;2.57;;;;;;;-0.57;100.00;97563.25;5117866;28;20671;-75
2024/01/16 02:22:56;;;;;;;5.60;3.10;;;;;;;-0.68;100.00;97560.94;5117760;28;20210;-75
2024/01/16 02:25:22;;;;;;;7.17;3.20;;;;;;;-0.70;100.00;97556.84;5117657;28;20649;-75
2024/01/16 02:27:49;;;;;;;6.17;3.07;;;;;;;-0.79;100.00;97558.66;5117650;28;20207;-75
2024/01/16 02:30:15;;;;;;;4.53;3.10;;;;;;;-0.78;100.00;97552.44;5117702;28;20229;-75
2024/01/16 02:32:42;;;;;;;5.63;2.73;;;;;;;-0.81;100.00;97550.13;5117626;28;20233;-75
2024/01/16 02:35:09;;;;;;;4.77;3.10;;;;;;;-0.82;100.00;97552.91;5117653;28;20207;-75
2024/01/16 02:37:36;;;;;;;6.07;3.03;;;;;;;-0.88;100.00;97556.16;5117661;28;20203;-75
2024/01/16 02:40:06;;;;;;;5.17;2.77;;;;;;;-1.03;100.00;97540.31;5117568;28;20272;-75
2024/01/16 02:42:33;;;;;;;4.30;3.00;;;;;;;-1.01;100.00;97553.19;5117544;28;20199;-75
2024/01/16 02:44:59;;;;;;;8.37;3.60;;;;;;;-1.08;100.00;97552.22;5117490;28;20203;-75
2024/01/16 02:47:26;;;;;;;6.13;3.10;;;;;;;-1.10;100.00;97554.16;5117449;28;20312;-75
2024/01/16 02:49:52;;;;;;;5.37;2.87;;;;;;;-1.04;100.00;97551.72;5117395;28;20219;-75
2024/01/16 02:52:19;;;;;;;5.47;3.13;;;;;;;-1.08;100.00;97554.81;5117220;28;20229;-75
2024/01/16 02:54:45;;;;;;;4.67;2.93;;;;;;;-1.10;100.00;97554.97;5116976;28;20211;-75
2024/01/16 02:57:11;;;;;;;3.80;2.60;;;;;;;-1.12;100.00;97556.13;5117258;28;20203;-75
2024/01/16 02:59:38;;;;;;;6.83;3.03;;;;;;;-1.14;100.00;97565.88;5117187;28;20455;-75
2024/01/16 03:02:04;;;;;;;5.47;3.13;;;;;;;-1.13;100.00;97559.69;5116828;28;20564;-75
2024/01/16 03:04:31;;;;;;;4.33;2.90;;;;;;;-1.20;100.00;97567.34;5117139;28;20203;-75
2024/01/16 03:06:57;;;;;;;3.77;2.93;;;;;;;-1.24;100.00;97571.22;5116752;28;20207;-75
2024/01/16 03:09:23;;;;;;;5.97;3.10;;;;;;;-1.26;100.00;97567.94;5116686;28;20223;-75
2024/01/16 03:11:50;;;;;;;5.80;3.10;;;;;;;-1.23;100.00;97570.25;5116869;28;20474;-75
2024/01/16 03:14:16;;;;;;;4.47;2.90;;;;;;;-1.27;100.00;97563.72;5116595;28;20663;-75
2024/01/16 03:16:42;;;;;;;4.73;3.40;;;;;;;-1.36;100.00;97569.88;5116560;28;20439;-75
2024/01/16 03:19:09;;;;;;;4.47;3.00;;;;;;;-1.30;100.00;97558.81;5116455;28;20446;-75
2024/01/16 03:21:35;;;;;;;6.77;3.07;;;;;;;-1.28;100.00;97559.47;5116680;28;20439;-75
2024/01/16 03:24:01;;;;;;;4.90;2.90;;;;;;;-1.33;100.00;97556.53;5115491;28;20426;-75
2024/01/16 03:26:28;;;;;;;5.97;3.03;;;;;;;-1.36;100.00;97561.22;5116404;28;20436;-75
2024/01/16 03:28:54;;;;;;;5.87;3.07;;;;;;;-1.28;100.00;97562.09;5116637;28;20938;-75
2024/01/16 03:31:21;;;;;;;3.27;2.87;;;;;;;-1.39;100.00;97559.75;5116275;28;20440;-75
2024/01/16 03:33:47;;;;;;;4.10;2.77;;;;;;;-1.40;100.00;97570.34;5116524;28;20497;-75
2024/01/16 03:36:15;;;;;;;4.40;3.00;;;;;;;-1.40;100.00;97568.53;5116415;28;20427;-75
2024/01/16 03:38:43;;;;;;;2.93;2.53;;;;;;;-1.41;100.00;97573.91;5116485;28;20302;-75
2024/01/16 03:41:12;;;;;;;4.00;2.90;;;;;;;-1.40;100.00;97570.34;5116417;28;20226;-75
2024/01/16 03:43:38;;;;;;;7.03;3.23;;;;;;;-1.43;100.00;97570.66;5115989;28;20436;-75
2024/01/16 03:46:05;;;;;;;5.00;3.10;;;;;;;-1.45;100.00;97569.97;5116207;28;20440;-75
2024/01/16 03:48:31;;;;;;;6.10;2.93;;;;;;;-1.44;100.00;97574.25;5116227;28;20753;-75
2024/01/16 03:50:57;;;;;;;5.57;3.23;;;;;;;-1.52;100.00;97566.38;5116131;28;20459;-75
2024/01/16 03:53:24;;;;;;;4.00;3.37;;;;;;;-1.46;100.00;97560.53;5116071;28;20555;-75
2024/01/16 03:55:52;;;;;;;4.53;2.90;;;;;;;-1.52;100.00;97555.94;5115757;28;20817;-75
2024/01/16 03:58:18;;;;;;;5.03;3.50;;;;;;;-1.67;100.00;97549.69;5115732;28;20798;-75
2024/01/16 04:00:45;;;;;;;6.63;3.43;;;;;;;-1.70;100.00;97558.66;5115757;28;20458;-75
2024/01/16 04:03:13;;;;;;;3.80;2.80;;;;;;;-1.60;100.00;97555.91;5115923;28;20443;-75
2024/01/16 04:05:39;;;;;;;5.37;2.97;;;;;;;-1.63;100.00;97559.66;5115704;28;20438;-75
2024/01/16 04:08:06;;;;;;;7.00;3.17;;;;;;;-1.63;100.00;97551.81;5115443;28;20814;-75
2024/01/16 04:10:31;;;;;;;6.30;3.13;;;;;;;-1.58;100.00;97554.78;5115510;28;20451;-75
2024/01/16 04:13:01;;;;;;;3.83;2.53;;;;;;;-1.61;100.00;97555.13;5115492;28;20832;-75
2024/01/16 04:15:28;;;;;;;3.70;2.43;;;;;;;-1.60;100.00;97548.09;5115807;28;20199;-75
2024/01/16 04:17:54;;;;;;;4.63;2.90;;;;;;;-1.69;100.00;97544.63;5115389;28;20435;-75
2024/01/16 04:20:21;;;;;;;5.17;3.10;;;;;;;-1.73;100.00;97551.13;5115387;28;20455;-75
2024/01/16 04:22:47;;;;;;;4.70;2.90;;;;;;;-1.68;100.00;97545.44;5115396;28;20443;-75
2024/01/16 04:25:14;;;;;;;5.53;3.10;;;;;;;-1.74;100.00;97548.69;5115454;28;20435;-74
2024/01/16 04:27:41;;;;;;;5.00;3.00;;;;;;;-1.73;100.00;97552.91;5115389;28;20775;-74
2024/01/16 04:30:08;;;;;;;4.47;3.03;;;;;;;-1.76;100.00;97546.22;5114966;28;20983;-74
2024/01/16 04:32:34;;;;;;;4.57;3.37;;;;;;;-1.73;100.00;97545.09;5115012;28;21000;-74
2024/01/16 04:35:01;;;;;;;4.47;2.93;;;;;;;-1.67;100.00;97547.91;5114832;28;20427;-74
2024/01/16 04:37:27;;;;;;;5.03;2.73;;;;;;;-1.75;100.00;97553.06;5115158;28;20805;-74
2024/01/16 04:39:54;;;;;;;4.67;2.60;;;;;;;-1.68;100.00;97546.25;5114630;28;20933;-74
2024/01/16 04:42:20;;;;;;;4.00;3.00;;;;;;;-1.76;100.00;97551.44;5114649;28;20432;-74
2024/01/16 04:44:46;;;;;;;5.17;2.80;;;;;;;-1.71;100.00;97548.38;5114523;28;20442;-74
2024/01/16 04:47:13;;;;;;;6.67;3.00;;;;;;;-1.84;100.00;97548.81;5114768;28;20440;-74
2024/01/16 04:49:40;;;;;;;4.17;3.00;;;;;;;-1.67;100.00;97547.91;5114591;28;20452;-74
2024/01/16 04:52:06;;;;;;;6.93;3.03;;;;;;;-1.67;100.00;97531.47;5114149;28;20478;-74
2024/01/16 04:54:33;;;;;;;2.93;2.50;;;;;;;-1.79;100.00;97540.50;5114592;28;20435;-74
2024/01/16 04:56:59;;;;;;;4.80;2.90;;;;;;;-1.74;100.00;97536.47;5114520;28;20485;-74
2024/01/16 04:59:26;;;;;;;4.20;3.00;;;;;;;-1.74;100.00;97536.47;5114233;28;20558;-74
2024/01/16 05:01:52;;;;;;;5.00;2.73;;;;;;;-1.77;100.00;97536.78;5114580;28;20436;-75
2024/01/16 05:04:19;;;;;;;2.83;2.30;;;;;;;-1.86;100.00;97539.47;5114491;28;20431;-74
2024/01/16 05:06:45;;;;;;;4.43;2.53;;;;;;;-2.03;100.00;97549.00;5114015;28;20492;-75
2024/01/16 05:09:12;;;;;;;4.53;2.77;;;;;;;-2.05;100.00;97545.72;5113972;28;20436;-75
2024/01/16 05:11:38;;;;;;;3.67;2.93;;;;;;;-2.21;100.00;97553.41;5114283;28;20438;-75
2024/01/16 05:14:04;;;;;;;5.10;2.70;;;;;;;-2.24;100.00;97552.91;5114358;28;20490;-75
2024/01/16 05:16:31;;;;;;;4.43;2.63;;;;;;;-2.31;100.00;97552.72;5114385;28;20813;-75
2024/01/16 05:18:57;;;;;;;3.60;2.40;;;;;;;-2.28;100.00;97554.19;5114612;28;20794;-75
2024/01/16 05:21:23;;;;;;;5.03;2.77;;;;;;;-2.34;100.00;97547.78;5113888;28;20761;-75
2024/01/16 05:23:50;;;;;;;4.90;2.77;;;;;;;-2.28;100.00;97541.16;5113729;28;20755;-75
2024/01/16 05:26:16;;;;;;;5.03;2.87;;;;;;;-2.34;100.00;97539.19;5114544;28;20431;-75
2024/01/16 05:28:42;;;;;;;3.83;2.67;;;;;;;-2.39;100.00;97538.81;5113868;28;20432;-75
2024/01/16 05:31:09;;;;;;;5.13;2.80;;;;;;;-2.45;100.00;97529.81;5114241;28;20459;-75
2024/01/16 05:33:35;;;;;;;4.80;2.50;;;;;;;-2.37;100.00;97532.50;5113686;28;20476;-75
2024/01/16 05:36:02;;;;;;;4.60;2.57;;;;;;;-2.26;100.00;97521.03;5113616;28;20442;-75
2024/01/16 05:38:28;;;;;;;3.03;2.53;;;;;;;-2.07;100.00;97521.63;5114045;28;20438;-75
2024/01/16 05:40:55;;;;;;;5.63;2.70;;;;;;;-1.94;100.00;97506.41;5113971;28;20455;-75
2024/01/16 05:43:21;;;;;;;3.20;2.37;;;;;;;-1.90;100.00;97514.75;5116111;28;20514;-75
2024/01/16 05:45:47;;;;;;;6.47;2.40;;;;;;;-2.04;100.00;97523.09;5113089;28;20798;-75
2024/01/16 05:48:14;;;;;;;4.07;2.60;;;;;;;-1.97;100.00;97514.53;5113359;28;20428;-75
2024/01/16 05:50:40;;;;;;;3.03;2.50;;;;;;;-2.11;100.00;97520.31;5113531;28;20451;-75
2024/01/16 05:53:06;;;;;;;5.83;2.70;;;;;;;-2.16;100.00;97516.53;5114167;28;20490;-75
2024/01/16 05:55:35;;;;;;;4.33;2.30;;;;;;;-2.18;100.00;97523.66;5113151;28;20424;-75
2024/01/16 05:58:01;;;;;;;4.93;3.13;;;;;;;-2.15;100.00;97521.59;5113553;28;20435;-75
2024/01/16 06:00:27;;;;;;;4.70;3.00;;;;;;;-2.23;100.00;97516.31;5113368;28;20498;-75
2024/01/16 06:02:54;;;;;;;5.63;2.90;;;;;;;-2.20;100.00;97515.19;5113592;28;20437;-75
2024/01/16 06:05:21;;;;;;;4.13;2.77;;;;;;;-2.15;100.00;97519.00;5113300;28;20441;-75
2024/01/16 06:07:47;;;;;;;3.57;2.70;;;;;;;-2.20;100.00;97513.44;5113574;28;20438;-75
2024/01/16 06:10:14;;;;;;;3.87;2.80;;;;;;;-2.26;100.00;97514.03;5113378;28;20462;-75
2024/01/16 06:12:40;;;;;;;4.23;3.10;;;;;;;-2.18;100.00;97518.44;5113159;28;20467;-75
2024/01/16 06:15:07;;;;;;;3.77;2.70;;;;;;;-2.23;100.00;97513.72;5114159;28;20439;-75
2024/01/16 06:17:34;;;;;;;6.73;2.90;;;;;;;-2.22;100.00;97511.94;5113149;28;20438;-75
2024/01/16 06:20:01;;;;;;;5.47;2.57;;;;;;;-2.11;100.00;97519.50;5113165;28;20451;-75
2024/01/16 06:22:27;;;;;;;3.43;2.10;;;;;;;-2.07;100.00;97521.63;5113086;28;20447;-75
2024/01/16 06:24:54;;;;;;;4.73;2.87;;;;;;;-2.10;100.00;97519.34;5113364;28;20437;-75
2024/01/16 06:27:20;;;;;;;4.23;2.70;;;;;;;-2.28;100.00;97509.94;5112948;28;20427;-75
2024/01/16 06:29:47;;;;;;;5.00;2.83;;;;;;;-2.27;100.00;97507.19;5112645;28;20986;-75
2024/01/16 06:32:13;;;;;;;3.93;2.57;;;;;;;-2.30;100.00;97509.28;5113250;28;20441;-75
2024/01/16 06:34:40;;;;;;;3.83;2.70;;;;;;;-2.24;100.00;97511.25;5113067;28;20779;-75
2024/01/16 06:37:06;;;;;;;6.07;3.30;;;;;;;-2.23;100.00;97510.28;5113059;28;20442;-75
2024/01/16 06:39:33;;;;;;;4.80;2.87;;;;;;;-2.30;100.00;97515.28;5113619;28;20974;-75
2024/01/16 06:41:59;;;;;;;6.10;2.73;;;;;;;-2.26;100.00;97521.81;5113048;28;20442;-75
2024/01/16 06:44:26;;;;;;;6.53;3.13;;;;;;;-2.25;100.00;97518.25;5113080;28;20431;-75
2024/01/16 06:46:52;;;;;;;7.40;3.03;;;;;;;-2.26;100.00;97516.63;5113045;28;20478;-75
2024/01/16 06:49:18;;;;;;;6.17;3.30;;;;;;;-2.14;100.00;97512.81;5113014;28;20465;-75
2024/01/16 06:51:45;;;;;;;4.87;2.77;;;;;;;-2.11;100.00;97517.72;5112960;28;20431;-75
2024/01/16 06:54:11;;;;;;;4.77;2.90;;;;;;;-2.04;100.00;97516.13;5112337;28;21008;-75
2024/01/16 06:56:37;;;;;;;5.37;3.00;;;;;;;-2.04;100.00;97523.09;5112962;28;20438;-75
2024/01/16 06:59:04;;;;;;;4.60;2.97;;;;;;;-2.00;100.00;97527.84;5116112;28;20427;-75
2024/01/16 07:01:30;;;;;;;4.17;2.47;;;;;;;-2.02;100.00;97516.78;5116579;28;20446;-75
2024/01/16 07:03:57;;;;;;;5.30;2.37;;;;;;;-1.96;100.00;97518.78;5116471;28;20522;-75
2024/01/16 07:06:23;;;;;;;4.57;2.60;;;;;;;-2.02;100.00;97518.56;5116511;28;20445;-75
2024/01/16 07:08:49;;;;;;;4.43;3.03;;;;;;;-2.01;100.00;97536.66;5117141;28;20432;-75
2024/01/16 07:11:16;;;;;;;3.07;2.20;;;;;;;-2.04;100.00;97531.75;5116415;28;20462;-75
2024/01/16 07:13:42;;;;;;;3.30;2.40;;;;;;;-1.98;100.00;97525.91;5116344;28;20467;-75
2024/01/16 07:16:12;;;;;;;4.80;2.37;;;;;;;-1.97;100.00;97529.34;5116292;28;20483;-75
2024/01/16 07:18:39;;;;;;;4.53;2.87;;;;;;;-2.03;100.00;97524.75;5116385;27;20486;-75
2024/01/16 07:21:17;;;;;;;4.63;2.50;;;;;;;-2.05;100.00;97530.13;5116153;28;20460;-75
2024/01/16 07:23:43;;;;;;;4.27;2.40;;;;;;;-2.07;100.00;97520.81;5116230;28;20749;-75
2024/01/16 07:26:09;;;;;;;4.33;2.77;;;;;;;-2.01;100.00;97528.84;5116269;28;20439;-75
2024/01/16 07:28:36;;;;;;;6.50;2.53;;;;;;;-1.97;100.00;97521.53;5116380;28;20462;-75
2024/01/16 07:31:02;;;;;;;4.30;2.40;;;;;;;-2.05;100.00;97530.13;5115892;28;20457;-75
2024/01/16 07:33:28;;;;;;;5.03;2.40;;;;;;;-1.97;100.00;97522.34;5115945;28;20494;-75
2024/01/16 07:35:55;;;;;;;3.43;2.30;;;;;;;-1.99;100.00;97526.88;5116720;28;20431;-75
2024/01/16 07:38:22;;;;;;;5.37;2.60;;;;;;;-1.96;100.00;97521.38;5115960;28;20792;-75
2024/01/16 07:40:49;;;;;;;3.87;2.50;;;;;;;-1.96;100.00;97529.19;5115607;28;20465;-79
2024/01/16 07:43:15;;;;;;;4.43;2.20;;;;;;;-1.92;100.00;97519.28;5115839;28;20470;-75
2024/01/16 07:45:41;;;;;;;3.33;2.30;;;;;;;-1.92;100.00;97521.88;5115527;28;20427;-75
2024/01/16 07:48:08;;;;;;;6.07;2.30;;;;;;;-1.88;100.00;97520.59;5115233;28;20440;-76
2024/01/16 07:50:34;;;;;;;4.77;2.60;;;;;;;-1.80;100.00;97521.44;5115415;28;20970;-75
2024/01/16 07:53:00;;;;;;;5.10;2.63;;;;;;;-1.75;100.00;97516.59;5115957;28;20498;-74
2024/01/16 07:55:27;;;;;;;3.90;2.63;;;;;;;-1.66;100.00;97518.25;5115988;28;20443;-74
2024/01/16 07:57:55;;;;;;;3.20;2.10;;;;;;;-1.70;100.00;97516.13;5115760;28;20441;-74
2024/01/16 08:00:21;;;;;;;3.20;2.00;;;;;;;-1.63;100.00;97517.94;5114619;28;20462;-75
2024/01/16 08:02:48;;;;;;;2.97;1.93;;;;;;;-1.59;100.00;97519.28;5115642;28;20475;-75
2024/01/16 08:05:15;;;;;;;3.87;2.50;;;;;;;-1.53;100.00;97523.06;5115488;28;20539;-75
2024/01/16 08:07:44;;;;;;;5.60;2.37;;;;;;;-1.54;100.00;97522.22;5115806;28;20535;-75
2024/01/16 08:10:10;;;;;;;6.27;2.27;;;;;;;-1.52;100.00;97522.06;5114588;28;20448;-76
2024/01/16 08:12:37;;;;;;;2.73;1.97;;;;;;;-1.38;100.00;97522.31;5115409;28;20469;-75
2024/01/16 08:15:05;;;;;;;4.10;1.80;;;;;;;-1.38;100.00;97521.47;5115248;28;20881;-75
2024/01/16 08:17:31;;;;;;;4.57;2.40;;;;;;;-1.28;100.00;97517.75;5115104;28;20800;-75
2024/01/16 08:19:57;;;;;;;3.27;2.10;;;;;;;-1.26;100.00;97520.22;5115213;28;20462;-75
2024/01/16 08:22:24;;;;;;;4.57;2.17;;;;;;;-1.18;100.00;97517.59;5114660;28;20459;-75
2024/01/16 08:24:50;;;;;;;3.70;2.30;;;;;;;-1.15;100.00;97515.53;5114974;28;20438;-75
2024/01/16 08:27:17;;;;;;;5.37;2.27;;;;;;;-1.04;100.00;97522.22;5119815;28;20438;-79
2024/01/16 08:29:44;;;;;;;3.20;2.20;;;;;;;-1.11;100.00;97524.66;5122979;28;20226;-79
2024/01/16 08:32:10;;;;;;;5.50;2.30;;;;;;;-1.03;100.00;97529.88;5124918;28;20293;-80
2024/01/16 08:34:36;;;;;;;3.77;2.30;;;;;;;-1.06;100.00;97524.16;5122731;28;20313;-79
2024/01/16 08:37:04;;;;;;;3.97;2.00;;;;;;;-1.01;100.00;97535.75;5118868;28;20997;-75
2024/01/16 08:39:33;;;;;;;3.93;2.37;;;;;;;-1.00;100.00;97528.75;5114353;28;20314;-75
2024/01/16 08:41:59;;;;;;;4.30;2.33;;;;;;;-1.00;100.00;97534.78;5114845;28;20203;-75
2024/01/16 08:44:25;;;;;;;2.70;1.97;;;;;;;-1.05;100.00;97536.22;5114588;28;20440;-74
2024/01/16 08:46:52;;;;;;;3.00;1.90;;;;;;;-0.90;100.00;97535.44;5114842;28;20768;-74
2024/01/16 08:49:18;;;;;;;2.97;2.00;;;;;;;-0.77;100.00;97535.81;5114732;28;20233;-75
2024/01/16 08:51:45;;;;;;;4.10;2.30;;;;;;;-0.77;100.00;97541.03;5114501;28;20256;-75
2024/01/16 08:54:11;;;;;;;4.83;1.83;;;;;;;-0.75;100.00;97549.53;5114757;28;20295;-74
2024/01/16 08:56:38;;;;;;;4.27;2.17;;;;;;;-0.70;100.00;97551.63;5114600;28;20298;-75
2024/01/16 08:59:05;;;;;;;3.57;2.03;;;;;;;-0.71;100.00;97560.44;5114454;28;20441;-75
2024/01/16 09:01:31;;;;;;;3.50;2.13;;;;;;;-0.68;100.00;97553.09;5114546;28;20206;-75
2024/01/16 09:03:58;;;;;;;5.97;2.70;;;;;;;-0.53;100.00;97561.13;5114241;28;20275;-75
2024/01/16 09:06:25;;;;;;;3.67;1.97;;;;;;;-0.48;100.00;97557.06;5114130;28;20241;-74
2024/01/16 09:08:51;;;;;;;3.33;2.10;;;;;;;-0.33;100.00;97550.19;5114202;28;20203;-75
2024/01/16 09:11:18;;;;;;;2.00;1.60;;;;;;;-0.29;100.00;97554.13;5113860;28;20680;-74
2024/01/16 09:13:44;;;;;;;3.83;2.13;;;;;;;-0.25;100.00;97555.41;5114108;28;20226;-75
2024/01/16 09:16:11;;;;;;;6.77;2.60;;;;;;;-0.01;100.00;97544.94;5114068;28;20610;-75
2024/01/16 09:18:37;;;;;;;3.63;1.80;;;;;;;-0.07;100.00;97550.84;5114155;28;20207;-75
2024/01/16 09:21:04;;;;;;;2.17;1.63;;;;;;;-0.14;100.00;97546.41;5114169;28;20219;-75
2024/01/16 09:23:30;;;;;;;4.03;2.20;;;;;;;0.05;100.00;97546.09;5114206;28;20688;-75
2024/01/16 09:25:57;;;;;;;4.00;1.70;;;;;;;0.01;100.00;97550.81;5114035;28;20245;-75
2024/01/16 09:28:24;;;;;;;2.83;2.00;;;;;;;0.10;100.00;97555.03;5113862;28;20199;-74
2024/01/16 09:30:51;;;;;;;5.07;1.97;;;;;;;0.14;100.00;97552.94;5113914;28;20223;-75
2024/01/16 09:33:23;;;;;;;3.03;2.17;;;;;;;0.28;100.00;97560.09;5113838;27;20203;-75
2024/01/16 09:35:49;;;;;;;4.47;2.20;;;;;;;0.49;100.00;97562.16;5113777;28;20198;-74
2024/01/16 09:38:16;;;;;;;3.47;1.73;;;;;;;0.54;100.00;97559.84;5114442;28;20213;-74
2024/01/16 09:40:42;;;;;;;2.50;1.80;;;;;;;0.97;100.00;97557.53;5113835;28;20229;-74
2024/01/16 09:43:10;;;;;;;2.53;1.73;;;;;;;1.00;100.00;97556.38;5113361;28;20692;-74
2024/01/16 09:45:39;;;;;;;3.57;2.00;;;;;;;0.97;100.00;97561.94;5113766;28;20202;-74
2024/01/16 09:48:09;;;;;;;4.37;2.10;;;;;;;0.90;100.00;97561.81;5113444;28;20203;-74
2024/01/16 09:50:36;;;;;;;2.77;1.77;;;;;;;1.42;100.00;97565.47;5113664;28;20249;-74
2024/01/16 09:53:03;;;;;;;5.83;2.40;;;;;;;1.09;100.00;97557.97;5113777;28;20267;-74
2024/01/16 09:55:29;;;;;;;6.63;2.23;;;;;;;1.33;99.11;97550.78;5113867;28;20225;-74
2024/01/16 09:57:56;;;;;;;6.10;2.37;;;;;;;1.30;99.58;97558.19;5113341;28;20203;-74
2024/01/16 10:00:25;;;;;;;3.57;2.00;;;;;;;1.16;99.86;97554.47;5113925;28;20227;-75
2024/01/16 10:02:52;;;;;;;5.87;2.07;;;;;;;1.26;100.00;97551.66;5114108;28;20241;-75
2024/01/16 10:05:18;;;;;;;4.13;2.00;;;;;;;1.41;99.97;97544.69;5113414;28;20203;-75
2024/01/16 10:07:45;;;;;;;4.30;2.10;;;;;;;1.29;100.00;97556.53;5113444;28;20670;-75
2024/01/16 10:10:11;;;;;;;10.80;2.77;;;;;;;1.59;100.00;97553.06;5113519;28;20223;-75
2024/01/16 10:12:39;;;;;;;4.47;1.87;;;;;;;1.94;93.52;97544.59;5113231;28;20670;-75
2024/01/16 10:15:09;;;;;;;4.90;2.20;;;;;;;1.77;95.32;97543.09;5113387;28;20259;-75
2024/01/16 10:17:39;;;;;;;7.73;2.83;;;;;;;1.63;98.75;97541.25;5113262;28;20568;-75
2024/01/16 10:20:13;;;;;;;6.13;2.97;;;;;;;2.11;96.80;97539.00;5112579;28;20310;-75
2024/01/16 10:22:40;;;;;;;8.93;3.03;;;;;;;2.10;95.95;97532.13;5112742;28;20260;-75
2024/01/16 10:25:11;;;;;;;10.63;3.40;;;;;;;2.16;96.85;97520.13;5113325;28;20245;-75
2024/01/16 10:27:39;;;;;;;6.00;2.70;;;;;;;1.78;97.60;97524.56;5113448;28;20262;-75
2024/01/16 10:30:07;;;;;;;5.23;2.13;;;;;;;1.77;96.84;97515.09;5113471;28;20219;-75
2024/01/16 10:32:38;;;;;;;3.87;2.30;;;;;;;1.74;97.91;97512.81;5114608;28;20278;-75
2024/01/16 10:35:10;;;;;;;6.30;2.53;;;;;;;1.47;100.00;97507.31;5117391;28;20227;-75
2024/01/16 10:37:52;;;;;;;6.00;2.23;;;;;;;1.37;95.72;97512.78;5116843;28;20214;-75
2024/01/16 10:40:26;;;;;;;4.33;2.53;;;;;;;1.90;95.87;97507.41;5117240;28;20227;-75
2024/01/16 10:43:05;;;;;;;6.27;2.70;;;;;;;2.12;94.33;97503.91;5117339;28;20230;-75
2024/01/16 10:45:34;;;;;;;5.87;2.60;;;;;;;1.94;97.23;97502.66;5117056;27;20190;-75
2024/01/16 10:48:09;;;;;;;6.70;2.80;;;;;;;2.18;92.99;97505.03;5117178;28;20207;-75
2024/01/16 10:50:40;;;;;;;7.97;2.70;;;;;;;2.08;95.59;97509.72;5116949;28;20227;-75
2024/01/16 10:53:08;;;;;;;6.57;2.90;;;;;;;2.14;96.22;97514.22;5116618;27;20594;-75
2024/01/16 10:55:42;;;;;;;5.80;2.70;;;;;;;3.13;86.87;97516.16;5117030;28;20360;-75
2024/01/16 10:58:12;;;;;;;7.53;3.30;;;;;;;2.52;92.59;97510.56;5116910;28;20195;-75
2024/01/16 11:00:40;;;;;;;3.87;2.40;;;;;;;2.17;90.77;97491.09;5115049;28;20681;-75
2024/01/16 11:03:12;;;;;;;6.53;2.83;;;;;;;2.37;92.92;97489.56;5116594;27;20209;-75
2024/01/16 11:05:40;;;;;;;6.63;2.90;;;;;;;1.94;95.97;97485.09;5117057;28;20279;-75
2024/01/16 11:08:06;;;;;;;7.03;3.00;;;;;;;1.93;97.97;97482.66;5116944;28;20203;-75
2024/01/16 11:10:33;;;;;;;9.67;2.90;;;;;;;1.66;98.60;97480.66;5116711;28;20238;-75
2024/01/16 11:13:03;;;;;;;7.63;2.93;;;;;;;1.84;96.91;97483.72;5116883;28;20199;-75
2024/01/16 11:15:30;;;;;;;4.40;2.53;;;;;;;2.13;94.96;97486.41;5116560;28;20258;-75
2024/01/16 11:17:57;;;;;;;4.03;2.43;;;;;;;1.87;94.87;97478.13;5115168;28;20625;-75
2024/01/16 11:20:25;;;;;;;4.87;2.43;;;;;;;1.88;94.92;97471.91;5116841;28;20225;-75
2024/01/16 11:22:54;;;;;;;3.80;2.37;;;;;;;1.83;95.14;97469.00;5116185;28;20218;-75
2024/01/16 11:25:20;;;;;;;8.23;2.60;;;;;;;1.88;96.21;97461.41;5116066;28;20302;-75